createdAt,value
2022-08-04T00:05:50.064Z,22.90
2022-08-04T00:12:54.889Z,22.80
2022-08-04T00:20:03.070Z,22.70
2022-08-04T00:27:04.676Z,22.50
2022-08-04T00:34:05.835Z,22.40
2022-08-04T00:41:06.346Z,22.30
2022-08-04T00:48:12.668Z,22.20
2022-08-04T00:55:32.377Z,22.10
2022-08-04T01:02:56.827Z,22.00
2022-08-04T01:10:17.629Z,22.00
2022-08-04T01:17:24.957Z,21.90
2022-08-04T01:25:04.485Z,21.90
2022-08-04T01:32:11.858Z,21.90
2022-08-04T01:39:33.513Z,21.80
2022-08-04T01:46:35.074Z,21.70
2022-08-04T01:53:41.560Z,21.60
2022-08-04T02:00:56.568Z,21.50
2022-08-04T02:08:21.588Z,21.50
2022-08-04T02:15:31.328Z,21.40
2022-08-04T02:22:34.833Z,21.40
2022-08-04T02:29:40.764Z,21.40
2022-08-04T02:36:43.248Z,21.30
2022-08-04T02:43:51.519Z,21.30
2022-08-04T02:50:55.806Z,21.40
2022-08-04T02:57:59.002Z,21.40
2022-08-04T03:05:07.465Z,21.50
2022-08-04T03:12:44.836Z,21.50
2022-08-04T03:20:03.972Z,21.50
2022-08-04T03:27:30.426Z,21.50
2022-08-04T03:34:48.802Z,21.50
2022-08-04T03:42:05.549Z,21.40
2022-08-04T03:49:25.279Z,21.30
2022-08-04T03:56:30.855Z,21.20
2022-08-04T04:03:56.058Z,21.20
2022-08-04T04:11:19.936Z,21.10
2022-08-04T04:18:52.595Z,21.00
2022-08-04T04:26:31.971Z,21.00
2022-08-04T04:33:53.513Z,20.90
2022-08-04T04:41:05.144Z,20.90
2022-08-04T04:48:31.438Z,20.90
2022-08-04T04:55:38.916Z,20.90
2022-08-04T05:03:09.437Z,20.90
2022-08-04T05:10:37.979Z,21.00
2022-08-04T05:17:45.672Z,21.00
2022-08-04T05:24:49.414Z,21.10
2022-08-04T05:31:52.996Z,21.20
2022-08-04T05:38:55.579Z,21.30
2022-08-04T05:45:57.929Z,21.50
2022-08-04T05:52:59.872Z,21.80
2022-08-04T06:00:25.119Z,22.00
2022-08-04T06:07:27.524Z,22.20
2022-08-04T06:14:32.577Z,22.40
2022-08-04T06:21:34.941Z,22.70
2022-08-04T06:28:37.225Z,23.00
2022-08-04T06:35:37.664Z,23.40
2022-08-04T06:42:38.840Z,23.80
2022-08-04T06:51:23.455Z,24.10
2022-08-04T06:57:02.507Z,24.50
2022-08-04T07:04:04.227Z,24.80
2022-08-04T07:11:05.645Z,25.10
2022-08-04T07:18:06.436Z,25.40
2022-08-04T07:25:12.880Z,25.60
2022-08-04T07:32:14.721Z,25.80
2022-08-04T07:39:27.690Z,26.00
2022-08-04T07:46:31.173Z,26.20
2022-08-04T07:53:54.422Z,26.30
2022-08-04T08:00:54.766Z,26.50
2022-08-04T08:07:56.823Z,26.60
2022-08-04T08:14:57.895Z,26.90
2022-08-04T08:22:01.197Z,27.10
2022-08-04T08:29:04.056Z,27.40
2022-08-04T08:36:16.142Z,27.80
2022-08-04T08:44:00.670Z,28.10
2022-08-04T08:51:24.788Z,28.50
2022-08-04T08:58:46.540Z,28.90
2022-08-04T09:06:04.588Z,29.20
2022-08-04T09:13:34.400Z,29.60
2022-08-04T09:21:06.541Z,30.00
2022-08-04T09:28:43.532Z,30.30
2022-08-04T09:35:56.991Z,30.70
2022-08-04T09:43:17.106Z,31.10
2022-08-04T09:50:29.741Z,31.40
2022-08-04T09:57:50.022Z,31.60
2022-08-04T10:04:53.145Z,31.80
2022-08-04T10:12:06.493Z,32.10
2022-08-04T10:19:15.602Z,32.50
2022-08-04T10:26:29.137Z,32.90
2022-08-04T10:33:47.540Z,33.10
2022-08-04T10:41:11.302Z,33.30
2022-08-04T10:48:34.536Z,33.30
2022-08-04T10:56:07.947Z,33.10
2022-08-04T11:03:21.575Z,33.20
2022-08-04T11:10:25.697Z,33.40
2022-08-04T11:17:34.749Z,33.60
2022-08-04T11:25:22.231Z,34.00
2022-08-04T11:32:34.728Z,34.00
2022-08-04T11:39:58.459Z,34.10
2022-08-04T11:47:04.749Z,33.50
2022-08-04T11:54:06.284Z,33.00
2022-08-04T12:01:25.675Z,32.80
2022-08-04T12:08:41.015Z,32.50
2022-08-04T12:16:09.355Z,32.30
2022-08-04T12:23:17.351Z,32.30
2022-08-04T12:30:58.982Z,32.20
2022-08-04T12:37:49.491Z,32.10
2022-08-04T12:44:54.354Z,31.90
2022-08-04T12:52:07.779Z,31.60
2022-08-04T12:59:13.109Z,31.50
2022-08-04T13:06:19.759Z,31.70
2022-08-04T13:13:31.321Z,31.80
2022-08-04T13:20:37.380Z,32.10
2022-08-04T13:27:43.166Z,32.30
2022-08-04T13:34:49.446Z,32.50
2022-08-04T13:41:58.824Z,32.40
2022-08-04T13:56:25.209Z,32.80
2022-08-04T14:03:53.407Z,33.20
2022-08-04T14:10:57.898Z,33.30
2022-08-04T14:18:18.592Z,32.90
2022-08-04T14:25:19.406Z,32.50
2022-08-04T14:32:21.741Z,32.30
2022-08-04T14:40:17.469Z,32.00
2022-08-04T14:47:04.757Z,31.50
2022-08-04T14:54:18.527Z,31.30
2022-08-04T15:01:19.504Z,31.20
2022-08-04T15:08:19.900Z,31.10
2022-08-04T15:15:36.471Z,30.90
2022-08-04T15:22:37.749Z,30.80
2022-08-04T15:29:59.330Z,30.50
2022-08-04T15:37:03.611Z,30.30
2022-08-04T15:44:36.779Z,30.20
2022-08-04T15:51:37.242Z,30.00
2022-08-04T15:58:50.937Z,29.80
2022-08-04T16:05:51.456Z,29.60
2022-08-04T16:12:57.388Z,29.30
2022-08-04T16:20:08.385Z,29.20
2022-08-04T16:27:12.878Z,28.90
2022-08-04T16:34:48.530Z,28.80
2022-08-04T16:41:41.826Z,28.70
2022-08-04T16:49:03.324Z,28.70
2022-08-04T16:56:04.140Z,28.70
2022-08-04T17:03:09.668Z,28.60
2022-08-04T17:10:09.840Z,28.70
2022-08-04T17:17:10.520Z,28.70
2022-08-04T17:24:12.834Z,28.70
2022-08-04T17:31:18.057Z,28.90
2022-08-04T17:38:18.432Z,29.50
2022-08-04T17:52:44.974Z,30.30
2022-08-04T17:59:52.928Z,30.50
2022-08-04T18:08:35.466Z,30.70
2022-08-04T18:14:36.993Z,30.80
2022-08-04T18:21:46.261Z,30.40
2022-08-04T18:28:57.926Z,29.90
2022-08-04T18:36:33.869Z,29.30
2022-08-04T18:43:28.266Z,28.80
2022-08-04T18:50:58.920Z,28.20
2022-08-04T18:58:00.094Z,27.80
2022-08-04T19:05:02.117Z,27.50
2022-08-04T19:12:05.692Z,27.10
2022-08-04T19:19:06.436Z,26.90
2022-08-04T19:26:17.974Z,26.70
2022-08-04T19:33:30.430Z,26.50
2022-08-04T19:40:52.427Z,26.30
2022-08-04T19:48:16.306Z,26.20
2022-08-04T19:55:13.977Z,26.10
2022-08-04T20:02:15.134Z,25.80
2022-08-04T20:09:25.081Z,25.70
2022-08-04T20:16:29.972Z,25.60
2022-08-04T20:23:48.484Z,25.50
2022-08-04T20:30:50.037Z,25.40
2022-08-04T20:37:55.226Z,25.30
2022-08-04T20:45:01.606Z,25.10
2022-08-04T20:52:13.295Z,25.00
2022-08-04T20:59:17.146Z,24.80
2022-08-04T21:06:17.546Z,24.70
2022-08-04T21:13:17.784Z,24.50
2022-08-04T21:20:27.474Z,24.40
2022-08-04T21:27:30.793Z,24.30
2022-08-04T21:34:40.151Z,24.10
2022-08-04T21:42:19.740Z,24.00
2022-08-04T21:49:02.292Z,23.90
2022-08-04T21:56:05.867Z,23.80
2022-08-04T22:03:51.546Z,23.80
2022-08-04T22:10:32.940Z,23.70
2022-08-04T22:17:35.473Z,23.70
2022-08-04T22:24:36.689Z,23.70
2022-08-04T22:31:55.441Z,23.60
2022-08-04T22:39:04.507Z,23.50
2022-08-04T22:46:20.032Z,23.40
2022-08-04T22:53:21.973Z,23.30
2022-08-04T23:00:28.705Z,23.30
2022-08-04T23:07:47.157Z,22.90
2022-08-04T23:14:49.337Z,22.50
2022-08-04T23:22:02.011Z,22.20
2022-08-04T23:29:03.815Z,22.00
2022-08-04T23:36:05.427Z,21.90
2022-08-04T23:43:17.378Z,21.80
2022-08-04T23:50:18.662Z,21.60
2022-08-04T23:57:19.321Z,21.70
